This is the latest recevied weather packets stored in our database for station/object LRBV. If no packets are shown the sender has not sent any weather packets the latest 10 day(s).
| Time | Temp. | Humidity | Pressure | Rain* | Wind** | Luminosity | Snow |
|---|---|---|---|---|---|---|---|
| 1777892631 | 18.89° C | 43% | 1017 hPa | - | - | - | - |
| 1777890831 | 18.89° C | 43% | 1017 hPa | - | - | - | - |
| 1777889938 | 17.78° C | 43% | 1017 hPa | - | - | - | - |
| 1777887230 | 17.78° C | 43% | 1018 hPa | - | - | - | - |
| 1777886331 | 17.22° C | 45% | 1018 hPa | - | - | - | - |
| 1777885430 | 17.22° C | 45% | 1018 hPa | - | - | - | - |
| 1777884559 | 17.22° C | 45% | 1018 hPa | - | - | - | - |
| 1777883631 | 17.22° C | 45% | 1018 hPa | - | - | - | - |
| 1777882730 | 15° C | 48% | 1018 hPa | - | - | - | - |
| 1777881830 | 15° C | 48% | 1018 hPa | - | - | - | - |
| 1777880931 | 13.89° C | 51% | 1018 hPa | - | - | - | - |
| 1777880030 | 13.89° C | 51% | 1018 hPa | - | - | - | - |
| 1777879131 | 13.89° C | 44% | 1018 hPa | - | - | - | - |
| 1777878232 | 13.89° C | 44% | 1018 hPa | - | - | - | - |
| 1777877330 | 12.78° C | 47% | 1018 hPa | - | - | - | - |
| 1777876431 | 12.78° C | 47% | 1018 hPa | - | - | - | - |
| 1777875532 | 12.22° C | 51% | 1018 hPa | - | - | - | - |
| 1777874631 | 12.22° C | 51% | 1018 hPa | - | - | - | - |
| 1777873731 | 11.11° C | 62% | 1018 hPa | - | - | - | - |
| 1777872832 | 11.11° C | 62% | 1018 hPa | - | - | - | - |
| 1777871931 | 7.78° C | 71% | 1018 hPa | - | - | - | - |
| 1777871040 | 7.78° C | 71% | 1018 hPa | - | - | - | - |
| 1777870131 | 6.11° C | 81% | 1018 hPa | - | - | - | - |
| 1777869230 | 6.11° C | 81% | 1018 hPa | - | - | - | - |
| 1777868331 | 5° C | 81% | 1018 hPa | - | - | - | - |
* Rain since midnight (hover to see other rain measurements)
** Current wind speed in m/s (hover to see current wind gust speed)